x

Dauphin Island, Al (dpia1) Weather Station

3:00pm - Thu 26th May 2016 All times are CDT. -5 hours from GMT.

  • Wind
    14mph, 15mph gusts
  • Air Temp 79°f
  • Sea Pressure 1018.7mb
  • Dauphin Island, Al
  • Dauphin Island, Al

More Historic Weather Station data

Upgrade to MSW Pro to gain access to the past 30 days of data for over 8000 Wavebouys and Weather Stations around the globe.

Join Pro

Comparision Forecast

View Surf forecast
   
Thu 05/26 3:00pm 14 15 mph 1018.7mb 79f
2:00pm 14 16 mph 1019.1mb 79f
1:00pm 13 15 mph 1019.6mb 79f
12:00pm 10 11 mph 1020mb 78f
11:00am 7 8 mph 1020.5mb 78f
10:00am 6 7 mph 1020.4mb 78f
9:00am 8 10 mph 1020.5mb 78f
8:00am 9 10 mph 1020.1mb 77f
7:00am 5
mph
1020.3mb 77f
6:00am 3 5 mph 1019.7mb 76f
5:00am 9 10 mph 1018.8mb 76f
4:00am 10 11 mph 1018.7mb 76f
3:00am 15 17 mph 1018.2mb 76f
2:00am 13 14 mph 1018.8mb 76f
1:00am 13 14 mph 1019.5mb 76f
12:00am 11 13 mph 1020.3mb 76f
Wed 05/25 11:00pm 7 9 mph 1021.1mb 76f
10:00pm 7 8 mph 1021.2mb 77f
9:00pm 6 7 mph 1020.9mb 77f
8:00pm 10 13 mph 1020mb 77f
7:00pm 6 7 mph 1020.2mb 77f
6:00pm 8 9 mph 1020.1mb 78f
5:00pm 8 9 mph 1020.4mb 78f
4:00pm 7 8 mph 1021.1mb 78f
3:00pm 6 7 mph 1021.7mb 78f
2:00pm 11 14 mph 1021.9mb 78f
1:00pm 11 14 mph 1021.9mb 77f
12:00pm 13 14 mph 1022.1mb 77f
11:00am 11 13 mph 1022mb 77f
10:00am 13 15 mph 1021.8mb 77f
9:00am 11 13 mph 1021.9mb 77f
8:00am 11 14 mph 1021.2mb 77f
7:00am 13 14 mph 1020mb 76f
6:00am 5
mph
1020mb 76f
5:00am  -  1 mph 1019.4mb 76f
4:00am 5 6 mph 1018.9mb 76f
3:00am 6 7 mph 1019.1mb 76f
2:00am 10 11 mph 1019.3mb 77f
1:00am 10 11 mph 1019.6mb 77f
12:00am 7 8 mph 1020.4mb 77f
Tue 05/24 11:00pm 9 10 mph 1020.3mb 77f
10:00pm 9 10 mph 1020.5mb 77f
9:00pm 10 11 mph 1019.7mb 77f
8:00pm 11 14 mph 1019.3mb 77f
7:00pm 13 15 mph 1019mb 77f
6:00pm 13 15 mph 1019.2mb 78f
5:00pm 11 13 mph 1019.2mb 78f
4:00pm 11 14 mph 1019.3mb 77f
3:00pm 10 13 mph 1019.7mb 77f
2:00pm 11 13 mph 1019.9mb 77f
1:00pm 8 9 mph 1020.2mb 76f
12:00pm 10 13 mph 1020.4mb 76f
11:00am 7 8 mph 1020.2mb 77f
10:00am 9 13 mph 1019.6mb 77f
9:00am 7 8 mph 1019.1mb 76f
8:00am 5 6 mph 1018.6mb 76f
7:00am 5 6 mph 1018.1mb 77f
6:00am 2
mph
1017.4mb 76f
5:00am 6 7 mph 1016.9mb 76f
4:00am 3 6 mph 1016.5mb 76f
3:00am 6 8 mph 1015.8mb 76f
2:00am 7 8 mph 1015.6mb 76f
1:00am 5 6 mph 1016.1mb 76f
12:00am 5 6 mph 1016mb 76f
Mon 05/23 11:00pm 7 8 mph 1015.9mb 77f
10:00pm 7 8 mph 1015.4mb 77f
9:00pm 7 9 mph 1015mb 77f
8:00pm 8 10 mph 1014.7mb 77f
7:00pm 8 10 mph 1014.4mb 78f
6:00pm 7 8 mph 1014.5mb 78f
5:00pm 6 7 mph 1014.9mb 79f
4:00pm 6 8 mph 1015.1mb 79f
3:00pm 6 7 mph 1015.6mb 78f
2:00pm 5 6 mph 1015.8mb 78f
1:00pm 7 8 mph 1016.1mb 77f
12:00pm 8 9 mph 1016.4mb 77f
11:00am 5 7 mph 1016.3mb 77f
10:00am 7 8 mph 1016.1mb 75f
9:00am 9
mph
1016.1mb 74f
8:00am 11 13 mph 1015.9mb 74f
7:00am 9 10 mph 1015.5mb 74f
6:00am 8 9 mph 1015.1mb 74f
5:00am 10 11 mph 1014.5mb 74f
4:00am 13 14 mph 1014.1mb 75f
3:00am 11 13 mph 1014.2mb 76f
2:00am 13 14 mph 1014.2mb 76f
1:00am 15 16 mph 1014.3mb 77f
12:00am 15 17 mph 1014.3mb 77f
Sun 05/22 11:00pm 14 16 mph 1014.6mb 77f
10:00pm 16 17 mph 1014.5mb 77f